sensor_id;sensor_type;location;lat;lon;timestamp;temperature;humidity
30399;DHT22;17195;50.838;7.214;2023-04-24T00:00:33;11.80;99.90
30399;DHT22;17195;50.838;7.214;2023-04-24T00:02:58;11.80;99.90
30399;DHT22;17195;50.838;7.214;2023-04-24T00:05:24;11.80;99.90
30399;DHT22;17195;50.838;7.214;2023-04-24T00:07:50;11.80;99.90
30399;DHT22;17195;50.838;7.214;2023-04-24T00:10:19;11.80;99.90
30399;DHT22;17195;50.838;7.214;2023-04-24T00:12:45;11.80;99.90
30399;DHT22;17195;50.838;7.214;2023-04-24T00:15:10;11.90;99.90
30399;DHT22;17195;50.838;7.214;2023-04-24T00:17:36;11.90;99.90
30399;DHT22;17195;50.838;7.214;2023-04-24T00:20:03;11.90;99.90
30399;DHT22;17195;50.838;7.214;2023-04-24T00:22:30;12.00;99.90
30399;DHT22;17195;50.838;7.214;2023-04-24T00:24:56;11.90;99.90
30399;DHT22;17195;50.838;7.214;2023-04-24T00:27:22;11.90;99.90
30399;DHT22;17195;50.838;7.214;2023-04-24T00:29:48;11.80;99.90
30399;DHT22;17195;50.838;7.214;2023-04-24T00:32:14;11.80;99.90
30399;DHT22;17195;50.838;7.214;2023-04-24T00:34:40;11.80;99.90
30399;DHT22;17195;50.838;7.214;2023-04-24T00:37:06;11.80;99.90
30399;DHT22;17195;50.838;7.214;2023-04-24T00:39:32;11.80;99.90
30399;DHT22;17195;50.838;7.214;2023-04-24T00:41:57;11.80;99.90
30399;DHT22;17195;50.838;7.214;2023-04-24T00:44:23;11.90;99.90
30399;DHT22;17195;50.838;7.214;2023-04-24T00:46:49;11.90;99.90
30399;DHT22;17195;50.838;7.214;2023-04-24T00:49:20;11.90;99.90
30399;DHT22;17195;50.838;7.214;2023-04-24T00:51:46;12.00;99.90
30399;DHT22;17195;50.838;7.214;2023-04-24T00:54:16;11.90;99.90
30399;DHT22;17195;50.838;7.214;2023-04-24T00:56:42;12.00;99.90
30399;DHT22;17195;50.838;7.214;2023-04-24T00:59:08;11.90;99.90
30399;DHT22;17195;50.838;7.214;2023-04-24T01:01:34;11.90;99.90
30399;DHT22;17195;50.838;7.214;2023-04-24T01:04:00;11.90;99.90
30399;DHT22;17195;50.838;7.214;2023-04-24T01:06:30;11.90;99.90
30399;DHT22;17195;50.838;7.214;2023-04-24T01:08:57;12.00;99.90
30399;DHT22;17195;50.838;7.214;2023-04-24T01:11:24;12.00;99.90
30399;DHT22;17195;50.838;7.214;2023-04-24T01:13:50;12.00;99.90
30399;DHT22;17195;50.838;7.214;2023-04-24T01:16:16;12.10;99.90
30399;DHT22;17195;50.838;7.214;2023-04-24T01:18:43;12.00;99.90
30399;DHT22;17195;50.838;7.214;2023-04-24T01:21:09;12.10;99.90
30399;DHT22;17195;50.838;7.214;2023-04-24T01:23:38;12.00;99.90
30399;DHT22;17195;50.838;7.214;2023-04-24T01:26:04;12.00;99.90
30399;DHT22;17195;50.838;7.214;2023-04-24T01:28:29;12.10;99.90
30399;DHT22;17195;50.838;7.214;2023-04-24T01:30:55;12.10;99.90
30399;DHT22;17195;50.838;7.214;2023-04-24T01:33:21;12.10;99.90
30399;DHT22;17195;50.838;7.214;2023-04-24T01:35:48;12.10;99.90
30399;DHT22;17195;50.838;7.214;2023-04-24T01:38:13;12.10;99.90
30399;DHT22;17195;50.838;7.214;2023-04-24T01:40:39;12.00;99.90
30399;DHT22;17195;50.838;7.214;2023-04-24T01:43:05;11.90;99.90
30399;DHT22;17195;50.838;7.214;2023-04-24T01:45:31;11.80;99.90
30399;DHT22;17195;50.838;7.214;2023-04-24T01:47:56;11.80;99.90
30399;DHT22;17195;50.838;7.214;2023-04-24T01:50:22;11.70;99.90
30399;DHT22;17195;50.838;7.214;2023-04-24T01:52:48;11.50;99.90
30399;DHT22;17195;50.838;7.214;2023-04-24T01:55:13;11.50;99.90
30399;DHT22;17195;50.838;7.214;2023-04-24T01:57:39;11.40;99.90
30399;DHT22;17195;50.838;7.214;2023-04-24T02:00:06;11.40;99.90
30399;DHT22;17195;50.838;7.214;2023-04-24T02:02:32;11.30;99.90
30399;DHT22;17195;50.838;7.214;2023-04-24T02:04:58;11.30;99.90
30399;DHT22;17195;50.838;7.214;2023-04-24T02:07:23;11.20;99.90
30399;DHT22;17195;50.838;7.214;2023-04-24T02:09:49;11.30;99.90
30399;DHT22;17195;50.838;7.214;2023-04-24T02:12:15;11.20;99.90
30399;DHT22;17195;50.838;7.214;2023-04-24T02:14:42;11.20;99.90
30399;DHT22;17195;50.838;7.214;2023-04-24T02:17:08;11.10;99.90
30399;DHT22;17195;50.838;7.214;2023-04-24T02:19:34;11.10;99.90
30399;DHT22;17195;50.838;7.214;2023-04-24T02:21:59;11.00;99.90
30399;DHT22;17195;50.838;7.214;2023-04-24T02:24:25;11.00;99.90
30399;DHT22;17195;50.838;7.214;2023-04-24T02:26:50;11.00;99.90
30399;DHT22;17195;50.838;7.214;2023-04-24T02:29:16;11.00;99.90
30399;DHT22;17195;50.838;7.214;2023-04-24T02:31:41;10.90;99.90
30399;DHT22;17195;50.838;7.214;2023-04-24T02:34:07;10.80;99.90
30399;DHT22;17195;50.838;7.214;2023-04-24T02:36:32;10.80;99.90
30399;DHT22;17195;50.838;7.214;2023-04-24T02:38:58;10.70;99.90
30399;DHT22;17195;50.838;7.214;2023-04-24T02:41:23;10.60;99.90
30399;DHT22;17195;50.838;7.214;2023-04-24T02:43:49;10.60;99.90
30399;DHT22;17195;50.838;7.214;2023-04-24T02:46:15;10.40;99.90
30399;DHT22;17195;50.838;7.214;2023-04-24T02:48:40;10.30;99.90
30399;DHT22;17195;50.838;7.214;2023-04-24T02:51:06;10.30;99.90
30399;DHT22;17195;50.838;7.214;2023-04-24T02:53:32;10.30;99.90
30399;DHT22;17195;50.838;7.214;2023-04-24T02:55:58;10.20;99.90
30399;DHT22;17195;50.838;7.214;2023-04-24T02:58:23;10.20;99.90
30399;DHT22;17195;50.838;7.214;2023-04-24T03:00:53;10.10;99.90
30399;DHT22;17195;50.838;7.214;2023-04-24T03:03:19;10.10;99.90
30399;DHT22;17195;50.838;7.214;2023-04-24T03:05:44;10.10;99.90
30399;DHT22;17195;50.838;7.214;2023-04-24T03:08:11;10.10;99.90
30399;DHT22;17195;50.838;7.214;2023-04-24T03:10:36;10.10;99.90
30399;DHT22;17195;50.838;7.214;2023-04-24T03:13:02;10.10;99.90
30399;DHT22;17195;50.838;7.214;2023-04-24T03:15:27;10.10;99.90
30399;DHT22;17195;50.838;7.214;2023-04-24T03:17:53;10.10;99.90
30399;DHT22;17195;50.838;7.214;2023-04-24T03:20:18;10.10;99.90
30399;DHT22;17195;50.838;7.214;2023-04-24T03:22:44;10.10;99.90
30399;DHT22;17195;50.838;7.214;2023-04-24T03:25:10;10.10;99.90
30399;DHT22;17195;50.838;7.214;2023-04-24T03:27:35;10.00;99.90
30399;DHT22;17195;50.838;7.214;2023-04-24T03:30:01;10.00;99.90
30399;DHT22;17195;50.838;7.214;2023-04-24T03:32:27;10.00;99.90
30399;DHT22;17195;50.838;7.214;2023-04-24T03:34:53;10.00;99.90
30399;DHT22;17195;50.838;7.214;2023-04-24T03:37:18;10.00;99.90
30399;DHT22;17195;50.838;7.214;2023-04-24T03:39:44;10.00;99.90
30399;DHT22;17195;50.838;7.214;2023-04-24T03:42:09;9.90;99.90
30399;DHT22;17195;50.838;7.214;2023-04-24T03:44:36;9.80;99.90
30399;DHT22;17195;50.838;7.214;2023-04-24T03:47:01;9.80;99.90
30399;DHT22;17195;50.838;7.214;2023-04-24T03:49:27;9.70;99.90
30399;DHT22;17195;50.838;7.214;2023-04-24T03:51:53;9.70;99.90
30399;DHT22;17195;50.838;7.214;2023-04-24T03:54:19;9.70;99.90
30399;DHT22;17195;50.838;7.214;2023-04-24T03:56:45;9.70;99.90
30399;DHT22;17195;50.838;7.214;2023-04-24T03:59:10;9.70;99.90
30399;DHT22;17195;50.838;7.214;2023-04-24T04:01:36;9.60;99.90
30399;DHT22;17195;50.838;7.214;2023-04-24T04:04:03;9.50;99.90
30399;DHT22;17195;50.838;7.214;2023-04-24T04:06:29;9.40;99.90
30399;DHT22;17195;50.838;7.214;2023-04-24T04:08:56;9.30;99.90
30399;DHT22;17195;50.838;7.214;2023-04-24T04:11:22;9.30;99.90
30399;DHT22;17195;50.838;7.214;2023-04-24T04:13:47;9.30;99.90
30399;DHT22;17195;50.838;7.214;2023-04-24T04:16:13;9.30;99.90
30399;DHT22;17195;50.838;7.214;2023-04-24T04:18:39;9.30;99.90
30399;DHT22;17195;50.838;7.214;2023-04-24T04:21:04;9.30;99.90
30399;DHT22;17195;50.838;7.214;2023-04-24T04:23:30;9.40;99.90
30399;DHT22;17195;50.838;7.214;2023-04-24T04:25:57;9.50;99.90
30399;DHT22;17195;50.838;7.214;2023-04-24T04:28:22;9.50;99.90
30399;DHT22;17195;50.838;7.214;2023-04-24T04:30:50;9.50;99.90
30399;DHT22;17195;50.838;7.214;2023-04-24T04:33:21;9.60;99.90
30399;DHT22;17195;50.838;7.214;2023-04-24T04:35:47;9.60;99.90
30399;DHT22;17195;50.838;7.214;2023-04-24T04:38:22;9.70;99.90
30399;DHT22;17195;50.838;7.214;2023-04-24T04:40:47;9.70;99.90
30399;DHT22;17195;50.838;7.214;2023-04-24T04:43:13;9.70;99.90
30399;DHT22;17195;50.838;7.214;2023-04-24T04:45:40;9.80;99.90
30399;DHT22;17195;50.838;7.214;2023-04-24T04:48:08;9.80;99.90
30399;DHT22;17195;50.838;7.214;2023-04-24T04:50:34;9.80;99.90
30399;DHT22;17195;50.838;7.214;2023-04-24T04:53:00;9.80;99.90
30399;DHT22;17195;50.838;7.214;2023-04-24T04:55:26;9.80;99.90
30399;DHT22;17195;50.838;7.214;2023-04-24T04:57:52;9.90;99.90
30399;DHT22;17195;50.838;7.214;2023-04-24T05:00:18;9.90;99.90
30399;DHT22;17195;50.838;7.214;2023-04-24T05:02:43;9.90;99.90
30399;DHT22;17195;50.838;7.214;2023-04-24T05:05:10;9.90;99.90
30399;DHT22;17195;50.838;7.214;2023-04-24T05:07:35;9.80;99.90
30399;DHT22;17195;50.838;7.214;2023-04-24T05:10:01;9.90;99.90
30399;DHT22;17195;50.838;7.214;2023-04-24T05:12:27;9.90;99.90
30399;DHT22;17195;50.838;7.214;2023-04-24T05:14:52;9.90;99.90
30399;DHT22;17195;50.838;7.214;2023-04-24T05:17:18;9.90;99.90
30399;DHT22;17195;50.838;7.214;2023-04-24T05:19:44;9.90;99.90
30399;DHT22;17195;50.838;7.214;2023-04-24T05:22:10;9.90;99.90
30399;DHT22;17195;50.838;7.214;2023-04-24T05:24:36;9.90;99.90
30399;DHT22;17195;50.838;7.214;2023-04-24T05:27:03;10.00;99.90
30399;DHT22;17195;50.838;7.214;2023-04-24T05:29:30;10.00;99.90
30399;DHT22;17195;50.838;7.214;2023-04-24T05:31:57;10.00;99.90
30399;DHT22;17195;50.838;7.214;2023-04-24T05:34:22;10.00;99.90
30399;DHT22;17195;50.838;7.214;2023-04-24T05:36:48;10.10;99.90
30399;DHT22;17195;50.838;7.214;2023-04-24T05:39:14;10.10;99.90
30399;DHT22;17195;50.838;7.214;2023-04-24T05:41:40;10.10;99.90
30399;DHT22;17195;50.838;7.214;2023-04-24T05:44:06;10.10;99.90
30399;DHT22;17195;50.838;7.214;2023-04-24T05:46:31;10.10;99.90
30399;DHT22;17195;50.838;7.214;2023-04-24T05:48:57;10.10;99.90
30399;DHT22;17195;50.838;7.214;2023-04-24T05:51:23;10.10;99.90
30399;DHT22;17195;50.838;7.214;2023-04-24T05:53:48;10.00;99.90
30399;DHT22;17195;50.838;7.214;2023-04-24T05:56:14;10.00;99.90
30399;DHT22;17195;50.838;7.214;2023-04-24T05:58:40;10.10;99.90
30399;DHT22;17195;50.838;7.214;2023-04-24T06:01:06;10.10;99.90
30399;DHT22;17195;50.838;7.214;2023-04-24T06:03:31;10.00;99.90
30399;DHT22;17195;50.838;7.214;2023-04-24T06:05:57;10.00;99.90
30399;DHT22;17195;50.838;7.214;2023-04-24T06:08:22;10.00;99.90
30399;DHT22;17195;50.838;7.214;2023-04-24T06:10:48;10.00;99.90
30399;DHT22;17195;50.838;7.214;2023-04-24T06:13:13;10.00;99.90
30399;DHT22;17195;50.838;7.214;2023-04-24T06:15:39;10.00;99.90
30399;DHT22;17195;50.838;7.214;2023-04-24T06:18:06;10.10;99.90
30399;DHT22;17195;50.838;7.214;2023-04-24T06:20:31;10.10;99.90
30399;DHT22;17195;50.838;7.214;2023-04-24T06:22:57;10.10;99.90
30399;DHT22;17195;50.838;7.214;2023-04-24T06:25:25;10.20;99.90
30399;DHT22;17195;50.838;7.214;2023-04-24T06:27:50;10.20;99.90
30399;DHT22;17195;50.838;7.214;2023-04-24T06:30:16;10.20;99.90
30399;DHT22;17195;50.838;7.214;2023-04-24T06:32:41;10.20;99.90
30399;DHT22;17195;50.838;7.214;2023-04-24T06:35:07;10.20;99.90
30399;DHT22;17195;50.838;7.214;2023-04-24T06:37:35;10.20;99.90
30399;DHT22;17195;50.838;7.214;2023-04-24T06:40:00;10.10;99.90
30399;DHT22;17195;50.838;7.214;2023-04-24T06:42:26;10.10;99.90
30399;DHT22;17195;50.838;7.214;2023-04-24T06:44:51;10.00;99.90
30399;DHT22;17195;50.838;7.214;2023-04-24T06:47:17;9.90;99.90
30399;DHT22;17195;50.838;7.214;2023-04-24T06:49:44;9.90;99.90
30399;DHT22;17195;50.838;7.214;2023-04-24T06:52:09;9.70;99.90
30399;DHT22;17195;50.838;7.214;2023-04-24T06:54:35;9.70;99.90
30399;DHT22;17195;50.838;7.214;2023-04-24T06:57:00;9.70;99.90
30399;DHT22;17195;50.838;7.214;2023-04-24T06:59:27;9.60;99.90
30399;DHT22;17195;50.838;7.214;2023-04-24T07:01:53;9.60;99.90
30399;DHT22;17195;50.838;7.214;2023-04-24T07:04:19;9.50;99.90
30399;DHT22;17195;50.838;7.214;2023-04-24T07:06:48;9.40;99.90
30399;DHT22;17195;50.838;7.214;2023-04-24T07:09:14;9.40;99.90
30399;DHT22;17195;50.838;7.214;2023-04-24T07:11:41;9.40;99.90
30399;DHT22;17195;50.838;7.214;2023-04-24T07:14:07;9.30;99.90
30399;DHT22;17195;50.838;7.214;2023-04-24T07:16:33;9.40;99.90
30399;DHT22;17195;50.838;7.214;2023-04-24T07:18:59;9.40;99.90
30399;DHT22;17195;50.838;7.214;2023-04-24T07:21:25;9.40;99.90
30399;DHT22;17195;50.838;7.214;2023-04-24T07:23:51;9.40;99.90
30399;DHT22;17195;50.838;7.214;2023-04-24T07:26:16;9.40;99.90
30399;DHT22;17195;50.838;7.214;2023-04-24T07:28:42;9.40;99.90
30399;DHT22;17195;50.838;7.214;2023-04-24T07:31:08;9.40;99.90
30399;DHT22;17195;50.838;7.214;2023-04-24T07:33:34;9.40;99.90
30399;DHT22;17195;50.838;7.214;2023-04-24T07:35:59;9.40;99.90
30399;DHT22;17195;50.838;7.214;2023-04-24T07:38:25;9.30;99.90
30399;DHT22;17195;50.838;7.214;2023-04-24T07:40:51;9.30;99.90
30399;DHT22;17195;50.838;7.214;2023-04-24T07:43:17;9.30;99.90
30399;DHT22;17195;50.838;7.214;2023-04-24T07:45:43;9.30;99.90
30399;DHT22;17195;50.838;7.214;2023-04-24T07:48:09;9.20;99.90
30399;DHT22;17195;50.838;7.214;2023-04-24T07:50:35;9.20;99.90
30399;DHT22;17195;50.838;7.214;2023-04-24T07:53:02;9.20;99.90
30399;DHT22;17195;50.838;7.214;2023-04-24T07:55:27;9.20;99.90
30399;DHT22;17195;50.838;7.214;2023-04-24T07:57:53;9.20;99.90
30399;DHT22;17195;50.838;7.214;2023-04-24T08:00:19;9.20;99.90
30399;DHT22;17195;50.838;7.214;2023-04-24T08:02:45;9.20;99.90
30399;DHT22;17195;50.838;7.214;2023-04-24T08:05:10;9.10;99.90
30399;DHT22;17195;50.838;7.214;2023-04-24T08:07:36;9.00;99.90
30399;DHT22;17195;50.838;7.214;2023-04-24T08:10:02;8.90;99.90
30399;DHT22;17195;50.838;7.214;2023-04-24T08:12:29;8.70;99.90
30399;DHT22;17195;50.838;7.214;2023-04-24T08:14:54;8.60;99.90
30399;DHT22;17195;50.838;7.214;2023-04-24T08:17:20;8.50;99.90
30399;DHT22;17195;50.838;7.214;2023-04-24T08:19:46;8.40;99.90
30399;DHT22;17195;50.838;7.214;2023-04-24T08:22:14;8.30;99.90
30399;DHT22;17195;50.838;7.214;2023-04-24T08:24:40;8.20;99.90
30399;DHT22;17195;50.838;7.214;2023-04-24T08:27:05;8.10;99.90
30399;DHT22;17195;50.838;7.214;2023-04-24T08:29:31;8.00;99.90
30399;DHT22;17195;50.838;7.214;2023-04-24T08:31:57;8.00;99.90
30399;DHT22;17195;50.838;7.214;2023-04-24T08:34:23;8.00;99.90
30399;DHT22;17195;50.838;7.214;2023-04-24T08:36:48;8.00;99.90
30399;DHT22;17195;50.838;7.214;2023-04-24T08:39:14;8.00;99.90
30399;DHT22;17195;50.838;7.214;2023-04-24T08:41:42;8.10;99.90
30399;DHT22;17195;50.838;7.214;2023-04-24T08:44:11;8.00;99.90
30399;DHT22;17195;50.838;7.214;2023-04-24T08:46:38;8.00;99.90
30399;DHT22;17195;50.838;7.214;2023-04-24T08:49:05;8.00;99.90
30399;DHT22;17195;50.838;7.214;2023-04-24T08:51:31;7.70;99.90
30399;DHT22;17195;50.838;7.214;2023-04-24T08:53:57;7.40;99.90
30399;DHT22;17195;50.838;7.214;2023-04-24T08:56:23;7.30;99.90
30399;DHT22;17195;50.838;7.214;2023-04-24T08:58:51;7.20;99.90
30399;DHT22;17195;50.838;7.214;2023-04-24T09:01:21;7.20;99.90
30399;DHT22;17195;50.838;7.214;2023-04-24T09:03:49;7.10;99.90
30399;DHT22;17195;50.838;7.214;2023-04-24T09:06:17;7.10;99.90
30399;DHT22;17195;50.838;7.214;2023-04-24T09:08:45;7.10;99.90
30399;DHT22;17195;50.838;7.214;2023-04-24T09:11:11;7.10;99.90
30399;DHT22;17195;50.838;7.214;2023-04-24T09:13:37;7.10;99.90
30399;DHT22;17195;50.838;7.214;2023-04-24T09:16:03;7.10;99.90
30399;DHT22;17195;50.838;7.214;2023-04-24T09:18:28;7.10;99.90
30399;DHT22;17195;50.838;7.214;2023-04-24T09:23:25;7.00;99.90
30399;DHT22;17195;50.838;7.214;2023-04-24T09:25:54;7.00;99.90
30399;DHT22;17195;50.838;7.214;2023-04-24T09:28:46;7.00;99.90
30399;DHT22;17195;50.838;7.214;2023-04-24T09:31:17;7.10;99.90
30399;DHT22;17195;50.838;7.214;2023-04-24T09:36:36;7.30;99.90
30399;DHT22;17195;50.838;7.214;2023-04-24T09:39:05;7.30;99.90
30399;DHT22;17195;50.838;7.214;2023-04-24T09:41:32;7.40;99.90
30399;DHT22;17195;50.838;7.214;2023-04-24T09:44:15;7.40;99.90
30399;DHT22;17195;50.838;7.214;2023-04-24T09:46:49;7.60;99.90
30399;DHT22;17195;50.838;7.214;2023-04-24T09:49:16;7.60;99.90
30399;DHT22;17195;50.838;7.214;2023-04-24T09:51:42;7.70;99.90
30399;DHT22;17195;50.838;7.214;2023-04-24T09:54:19;7.70;99.90
30399;DHT22;17195;50.838;7.214;2023-04-24T09:56:47;7.80;99.90
30399;DHT22;17195;50.838;7.214;2023-04-24T09:59:14;7.80;99.90
30399;DHT22;17195;50.838;7.214;2023-04-24T10:01:40;7.90;99.90
30399;DHT22;17195;50.838;7.214;2023-04-24T10:04:23;8.10;99.90
30399;DHT22;17195;50.838;7.214;2023-04-24T10:06:52;8.20;99.90
30399;DHT22;17195;50.838;7.214;2023-04-24T10:09:19;8.30;99.90
30399;DHT22;17195;50.838;7.214;2023-04-24T10:11:47;8.40;99.90
30399;DHT22;17195;50.838;7.214;2023-04-24T10:14:21;8.60;99.90
30399;DHT22;17195;50.838;7.214;2023-04-24T10:16:47;8.60;99.90
30399;DHT22;17195;50.838;7.214;2023-04-24T10:19:14;8.60;99.90
30399;DHT22;17195;50.838;7.214;2023-04-24T10:21:41;8.70;99.90
30399;DHT22;17195;50.838;7.214;2023-04-24T10:24:08;8.90;99.90
30399;DHT22;17195;50.838;7.214;2023-04-24T10:26:34;9.00;99.90
30399;DHT22;17195;50.838;7.214;2023-04-24T10:29:01;9.10;99.90
30399;DHT22;17195;50.838;7.214;2023-04-24T10:31:28;9.10;99.90
30399;DHT22;17195;50.838;7.214;2023-04-24T10:33:56;9.30;99.90
30399;DHT22;17195;50.838;7.214;2023-04-24T10:36:24;9.40;99.90
30399;DHT22;17195;50.838;7.214;2023-04-24T10:38:53;9.60;99.90
30399;DHT22;17195;50.838;7.214;2023-04-24T10:41:20;9.70;99.90
30399;DHT22;17195;50.838;7.214;2023-04-24T10:44:03;9.90;99.90
30399;DHT22;17195;50.838;7.214;2023-04-24T10:46:30;9.80;99.90
30399;DHT22;17195;50.838;7.214;2023-04-24T10:48:55;9.90;99.90
30399;DHT22;17195;50.838;7.214;2023-04-24T10:51:22;9.80;99.90
30399;DHT22;17195;50.838;7.214;2023-04-24T10:53:52;9.80;99.90
30399;DHT22;17195;50.838;7.214;2023-04-24T10:56:18;9.70;99.90
30399;DHT22;17195;50.838;7.214;2023-04-24T10:58:51;9.70;99.90
30399;DHT22;17195;50.838;7.214;2023-04-24T11:01:31;9.70;99.90
30399;DHT22;17195;50.838;7.214;2023-04-24T11:03:59;9.70;99.90
30399;DHT22;17195;50.838;7.214;2023-04-24T11:06:33;9.80;99.90
30399;DHT22;17195;50.838;7.214;2023-04-24T11:09:07;10.00;99.90
30399;DHT22;17195;50.838;7.214;2023-04-24T11:11:35;10.10;99.90
30399;DHT22;17195;50.838;7.214;2023-04-24T11:14:04;10.30;99.90
30399;DHT22;17195;50.838;7.214;2023-04-24T11:24:38;10.80;99.90
30399;DHT22;17195;50.838;7.214;2023-04-24T11:29:51;11.00;99.90
30399;DHT22;17195;50.838;7.214;2023-04-24T11:32:30;10.90;99.90
30399;DHT22;17195;50.838;7.214;2023-04-24T11:35:00;10.80;99.90
30399;DHT22;17195;50.838;7.214;2023-04-24T11:37:28;10.70;99.90
30399;DHT22;17195;50.838;7.214;2023-04-24T11:39:56;10.60;99.90
30399;DHT22;17195;50.838;7.214;2023-04-24T11:42:23;10.50;99.90
30399;DHT22;17195;50.838;7.214;2023-04-24T11:44:51;10.40;99.90
30399;DHT22;17195;50.838;7.214;2023-04-24T11:47:17;10.20;99.90
30399;DHT22;17195;50.838;7.214;2023-04-24T11:49:42;10.00;99.90
30399;DHT22;17195;50.838;7.214;2023-04-24T11:52:08;9.90;99.90
30399;DHT22;17195;50.838;7.214;2023-04-24T11:54:33;9.80;99.90
30399;DHT22;17195;50.838;7.214;2023-04-24T11:56:59;9.70;99.90
30399;DHT22;17195;50.838;7.214;2023-04-24T11:59:28;9.80;99.90
30399;DHT22;17195;50.838;7.214;2023-04-24T12:01:54;10.00;99.90
30399;DHT22;17195;50.838;7.214;2023-04-24T12:04:19;10.20;99.90
30399;DHT22;17195;50.838;7.214;2023-04-24T12:07:02;10.40;99.90
30399;DHT22;17195;50.838;7.214;2023-04-24T12:09:28;10.60;99.90
30399;DHT22;17195;50.838;7.214;2023-04-24T12:11:55;11.00;99.90
30399;DHT22;17195;50.838;7.214;2023-04-24T12:14:24;11.30;99.90
30399;DHT22;17195;50.838;7.214;2023-04-24T12:16:52;11.50;99.90
30399;DHT22;17195;50.838;7.214;2023-04-24T12:19:22;11.70;99.90
30399;DHT22;17195;50.838;7.214;2023-04-24T12:22:04;11.80;99.90
30399;DHT22;17195;50.838;7.214;2023-04-24T12:24:30;11.80;99.90
30399;DHT22;17195;50.838;7.214;2023-04-24T12:26:56;12.00;99.90
30399;DHT22;17195;50.838;7.214;2023-04-24T12:29:24;11.90;99.90
30399;DHT22;17195;50.838;7.214;2023-04-24T12:31:51;12.00;99.90
30399;DHT22;17195;50.838;7.214;2023-04-24T12:34:21;12.10;99.90
30399;DHT22;17195;50.838;7.214;2023-04-24T12:36:47;12.30;99.90
30399;DHT22;17195;50.838;7.214;2023-04-24T12:39:17;12.20;99.90
30399;DHT22;17195;50.838;7.214;2023-04-24T12:41:56;12.40;99.90
30399;DHT22;17195;50.838;7.214;2023-04-24T12:44:32;12.30;99.90
30399;DHT22;17195;50.838;7.214;2023-04-24T12:47:00;12.10;99.90
30399;DHT22;17195;50.838;7.214;2023-04-24T12:49:26;12.00;99.90
30399;DHT22;17195;50.838;7.214;2023-04-24T12:51:51;11.70;99.90
30399;DHT22;17195;50.838;7.214;2023-04-24T12:54:17;11.60;99.90
30399;DHT22;17195;50.838;7.214;2023-04-24T12:56:42;11.30;99.90
30399;DHT22;17195;50.838;7.214;2023-04-24T12:59:08;10.60;99.90
30399;DHT22;17195;50.838;7.214;2023-04-24T13:01:33;10.60;99.90
30399;DHT22;17195;50.838;7.214;2023-04-24T13:03:59;10.70;99.90
30399;DHT22;17195;50.838;7.214;2023-04-24T13:06:25;10.80;99.90
30399;DHT22;17195;50.838;7.214;2023-04-24T13:08:51;11.10;99.90
30399;DHT22;17195;50.838;7.214;2023-04-24T13:11:17;11.60;99.90
30399;DHT22;17195;50.838;7.214;2023-04-24T13:13:43;12.50;99.90
30399;DHT22;17195;50.838;7.214;2023-04-24T13:16:08;13.00;99.90
30399;DHT22;17195;50.838;7.214;2023-04-24T13:18:34;13.70;99.90
30399;DHT22;17195;50.838;7.214;2023-04-24T13:20:59;14.20;99.90
30399;DHT22;17195;50.838;7.214;2023-04-24T13:23:25;14.40;99.90
30399;DHT22;17195;50.838;7.214;2023-04-24T13:25:51;14.10;99.90
30399;DHT22;17195;50.838;7.214;2023-04-24T13:28:17;13.80;99.90
30399;DHT22;17195;50.838;7.214;2023-04-24T13:30:42;13.90;99.90
30399;DHT22;17195;50.838;7.214;2023-04-24T13:33:08;13.80;99.90
30399;DHT22;17195;50.838;7.214;2023-04-24T13:35:34;13.60;99.90
30399;DHT22;17195;50.838;7.214;2023-04-24T13:37:59;13.80;99.90
30399;DHT22;17195;50.838;7.214;2023-04-24T13:40:26;14.00;99.90
30399;DHT22;17195;50.838;7.214;2023-04-24T13:42:52;13.90;99.90
30399;DHT22;17195;50.838;7.214;2023-04-24T13:45:18;13.90;99.90
30399;DHT22;17195;50.838;7.214;2023-04-24T13:47:43;13.70;99.90
30399;DHT22;17195;50.838;7.214;2023-04-24T13:50:09;13.20;99.90
30399;DHT22;17195;50.838;7.214;2023-04-24T13:52:35;13.00;99.90
30399;DHT22;17195;50.838;7.214;2023-04-24T13:55:00;13.00;99.90
30399;DHT22;17195;50.838;7.214;2023-04-24T13:57:26;13.00;99.90
30399;DHT22;17195;50.838;7.214;2023-04-24T13:59:53;12.90;99.90
30399;DHT22;17195;50.838;7.214;2023-04-24T14:02:20;13.20;99.90
30399;DHT22;17195;50.838;7.214;2023-04-24T14:04:46;13.60;99.90
30399;DHT22;17195;50.838;7.214;2023-04-24T14:07:13;13.90;99.90
30399;DHT22;17195;50.838;7.214;2023-04-24T14:09:38;13.90;99.90
30399;DHT22;17195;50.838;7.214;2023-04-24T14:12:04;14.00;99.90
30399;DHT22;17195;50.838;7.214;2023-04-24T14:14:31;13.80;99.90
30399;DHT22;17195;50.838;7.214;2023-04-24T14:16:56;13.80;99.90
30399;DHT22;17195;50.838;7.214;2023-04-24T14:19:22;13.90;99.90
30399;DHT22;17195;50.838;7.214;2023-04-24T14:21:48;13.90;99.90
30399;DHT22;17195;50.838;7.214;2023-04-24T14:24:13;13.80;99.90
30399;DHT22;17195;50.838;7.214;2023-04-24T14:26:39;14.20;99.90
30399;DHT22;17195;50.838;7.214;2023-04-24T14:29:04;14.40;99.90
30399;DHT22;17195;50.838;7.214;2023-04-24T14:31:30;14.50;99.90
30399;DHT22;17195;50.838;7.214;2023-04-24T14:33:56;14.50;99.90
30399;DHT22;17195;50.838;7.214;2023-04-24T14:36:22;15.00;99.90
30399;DHT22;17195;50.838;7.214;2023-04-24T14:38:48;15.50;99.90
30399;DHT22;17195;50.838;7.214;2023-04-24T14:41:14;15.20;99.90
30399;DHT22;17195;50.838;7.214;2023-04-24T14:43:39;15.10;99.90
30399;DHT22;17195;50.838;7.214;2023-04-24T14:46:05;15.10;99.90
30399;DHT22;17195;50.838;7.214;2023-04-24T14:48:31;15.10;99.90
30399;DHT22;17195;50.838;7.214;2023-04-24T14:50:57;15.50;99.90
30399;DHT22;17195;50.838;7.214;2023-04-24T14:53:22;15.90;99.90
30399;DHT22;17195;50.838;7.214;2023-04-24T14:55:48;16.30;99.90
30399;DHT22;17195;50.838;7.214;2023-04-24T14:58:13;16.30;99.90
30399;DHT22;17195;50.838;7.214;2023-04-24T15:00:39;16.30;99.90
30399;DHT22;17195;50.838;7.214;2023-04-24T15:03:04;16.20;99.90
30399;DHT22;17195;50.838;7.214;2023-04-24T15:05:30;16.90;99.90
30399;DHT22;17195;50.838;7.214;2023-04-24T15:07:56;17.10;99.90
30399;DHT22;17195;50.838;7.214;2023-04-24T15:10:21;17.40;99.90
30399;DHT22;17195;50.838;7.214;2023-04-24T15:12:48;17.00;99.90
30399;DHT22;17195;50.838;7.214;2023-04-24T15:15:14;17.10;98.60
30399;DHT22;17195;50.838;7.214;2023-04-24T15:17:39;17.40;99.80
30399;DHT22;17195;50.838;7.214;2023-04-24T15:20:05;18.20;99.10
30399;DHT22;17195;50.838;7.214;2023-04-24T15:22:32;18.30;96.10
30399;DHT22;17195;50.838;7.214;2023-04-24T15:24:57;18.10;95.20
30399;DHT22;17195;50.838;7.214;2023-04-24T15:27:23;18.90;94.20
30399;DHT22;17195;50.838;7.214;2023-04-24T15:29:48;20.60;92.60
30399;DHT22;17195;50.838;7.214;2023-04-24T15:32:14;21.20;89.20
30399;DHT22;17195;50.838;7.214;2023-04-24T15:34:39;21.00;88.90
30399;DHT22;17195;50.838;7.214;2023-04-24T15:37:05;20.50;85.00
30399;DHT22;17195;50.838;7.214;2023-04-24T15:39:30;20.50;86.60
30399;DHT22;17195;50.838;7.214;2023-04-24T15:41:56;18.90;88.00
30399;DHT22;17195;50.838;7.214;2023-04-24T15:44:22;18.50;90.60
30399;DHT22;17195;50.838;7.214;2023-04-24T15:46:48;18.10;90.70
30399;DHT22;17195;50.838;7.214;2023-04-24T15:49:13;18.90;91.10